createdAt,value
2023-02-08T00:01:16.388Z,1.30
2023-02-08T00:03:47.053Z,1.30
2023-02-08T00:06:17.318Z,1.30
2023-02-08T00:08:45.470Z,1.20
2023-02-08T00:11:14.112Z,1.20
2023-02-08T00:13:42.929Z,1.20
2023-02-08T00:16:12.328Z,1.30
2023-02-08T00:18:40.736Z,1.20
2023-02-08T00:21:10.843Z,1.20
2023-02-08T00:23:40.627Z,1.20
2023-02-08T00:26:09.147Z,1.20
2023-02-08T00:28:37.572Z,1.20
2023-02-08T00:31:06.181Z,1.30
2023-02-08T00:33:34.313Z,1.30
2023-02-08T00:36:03.521Z,1.30
2023-02-08T00:38:31.724Z,1.40
2023-02-08T00:41:01.173Z,1.40
2023-02-08T00:43:29.206Z,1.40
2023-02-08T00:45:57.820Z,1.30
2023-02-08T00:48:26.161Z,1.30
2023-02-08T00:51:02.010Z,1.20
2023-02-08T00:53:30.070Z,1.20
2023-02-08T00:55:58.462Z,1.20
2023-02-08T00:58:27.813Z,1.20
2023-02-08T01:00:56.179Z,1.20
2023-02-08T01:03:25.150Z,1.30
2023-02-08T01:05:53.833Z,1.20
2023-02-08T01:08:22.103Z,1.10
2023-02-08T01:10:50.136Z,1.20
2023-02-08T01:13:18.520Z,1.20
2023-02-08T01:15:47.900Z,1.20
2023-02-08T01:18:15.852Z,1.20
2023-02-08T01:20:43.942Z,0.90
2023-02-08T01:23:11.931Z,0.90
2023-02-08T01:25:39.950Z,1.00
2023-02-08T01:28:07.978Z,0.80
2023-02-08T01:30:36.039Z,0.30
2023-02-08T01:33:05.459Z,0.10
2023-02-08T01:35:33.404Z,0.40
2023-02-08T01:38:01.555Z,0.60
2023-02-08T01:40:29.596Z,0.70
2023-02-08T01:42:57.607Z,0.80
2023-02-08T01:45:28.240Z,0.90
2023-02-08T01:48:04.350Z,1.00
2023-02-08T01:50:40.614Z,1.00
2023-02-08T01:53:09.393Z,1.00
2023-02-08T01:55:41.055Z,1.00
2023-02-08T01:58:11.386Z,1.00
2023-02-08T02:00:39.639Z,0.90
2023-02-08T02:03:08.189Z,0.70
2023-02-08T02:05:42.472Z,0.60
2023-02-08T02:08:12.165Z,0.20
2023-02-08T02:10:41.806Z,0.10
2023-02-08T02:13:13.150Z,0.10
2023-02-08T02:15:41.591Z,0.30
2023-02-08T02:18:10.340Z,0.10
2023-02-08T02:21:03.940Z,0.20
2023-02-08T02:24:11.798Z,0.00
2023-02-08T02:27:15.454Z,0.00
2023-02-08T02:30:25.065Z,0.10
2023-02-08T02:33:16.436Z,0.20
2023-02-08T02:35:48.780Z,0.40
2023-02-08T02:38:26.495Z,0.50
2023-02-08T02:41:07.227Z,0.30
2023-02-08T02:43:46.369Z,0.10
2023-02-08T02:46:26.111Z,-0.20
2023-02-08T02:49:02.291Z,-0.20
2023-02-08T02:51:39.707Z,0.10
2023-02-08T02:54:12.561Z,0.30
2023-02-08T02:56:44.282Z,0.40
2023-02-08T02:59:14.167Z,0.40
2023-02-08T03:01:45.138Z,0.60
2023-02-08T03:04:19.705Z,0.40
2023-02-08T03:07:02.749Z,0.50
2023-02-08T03:09:45.242Z,0.60
2023-02-08T03:12:27.032Z,0.60
2023-02-08T03:14:59.871Z,0.60
2023-02-08T03:17:42.763Z,0.50
2023-02-08T03:20:15.007Z,0.20
2023-02-08T03:22:50.966Z,0.20
2023-02-08T03:25:23.913Z,-0.20
2023-02-08T03:28:07.048Z,-0.40
2023-02-08T03:30:46.037Z,-0.60
2023-02-08T03:33:19.060Z,-0.70
2023-02-08T03:35:57.408Z,-0.90
2023-02-08T03:38:31.119Z,-1.00
2023-02-08T03:41:02.508Z,-1.00
2023-02-08T03:43:34.622Z,-0.70
2023-02-08T03:46:07.681Z,-0.60
2023-02-08T03:48:38.087Z,-0.40
2023-02-08T03:51:09.174Z,-0.20
2023-02-08T03:53:40.567Z,-0.40
2023-02-08T03:56:12.036Z,-0.10
2023-02-08T03:58:44.847Z,0.00
2023-02-08T04:01:17.739Z,-0.10
2023-02-08T04:03:48.796Z,-0.30
2023-02-08T04:06:18.384Z,-0.60
2023-02-08T04:08:46.475Z,-0.60
2023-02-08T04:11:14.478Z,-0.60
2023-02-08T04:13:42.465Z,-0.80
2023-02-08T04:16:12.981Z,-0.80
2023-02-08T04:18:41.021Z,-0.70
2023-02-08T04:21:11.007Z,-0.60
2023-02-08T04:23:40.346Z,-0.70
2023-02-08T04:26:08.845Z,-0.70
2023-02-08T04:28:37.089Z,-0.60
2023-02-08T04:31:05.233Z,-0.80
2023-02-08T04:33:33.338Z,-0.90
2023-02-08T04:36:01.353Z,-0.90
2023-02-08T04:38:29.542Z,-0.90
2023-02-08T04:40:58.835Z,-0.90
2023-02-08T04:43:26.832Z,-1.00
2023-02-08T04:45:54.961Z,-1.00
2023-02-08T04:48:23.035Z,-1.10
2023-02-08T04:50:51.129Z,-1.00
2023-02-08T04:53:19.078Z,-1.00
2023-02-08T04:55:47.131Z,-1.00
2023-02-08T04:58:16.496Z,-0.90
2023-02-08T05:00:44.789Z,-0.80
2023-02-08T05:03:13.412Z,-0.80
2023-02-08T05:05:41.485Z,-0.70
2023-02-08T05:08:10.011Z,-0.60
2023-02-08T05:10:38.233Z,-0.30
2023-02-08T05:13:06.333Z,-0.40
2023-02-08T05:15:36.211Z,-0.70
2023-02-08T05:18:04.180Z,-0.60
2023-02-08T05:20:33.709Z,-0.50
2023-02-08T05:23:01.764Z,-0.20
2023-02-08T05:25:29.853Z,-0.10
2023-02-08T05:27:57.993Z,-0.10
2023-02-08T05:30:25.961Z,0.10
2023-02-08T05:32:55.352Z,0.10
2023-02-08T05:35:23.340Z,0.20
2023-02-08T05:37:51.386Z,0.20
2023-02-08T05:40:19.604Z,0.30
2023-02-08T05:42:48.012Z,0.30
2023-02-08T05:45:16.027Z,0.20
2023-02-08T05:47:44.048Z,0.20
2023-02-08T05:50:13.427Z,-0.10
2023-02-08T05:52:41.732Z,-0.10
2023-02-08T05:55:10.133Z,-0.50
2023-02-08T05:57:38.968Z,-0.70
2023-02-08T06:00:08.233Z,-0.70
2023-02-08T06:02:36.417Z,-0.70
2023-02-08T06:05:04.483Z,-0.90
2023-02-08T06:07:33.868Z,-0.80
2023-02-08T06:10:01.864Z,-0.90
2023-02-08T06:12:29.878Z,-0.90
2023-02-08T06:14:57.874Z,-0.90
2023-02-08T06:17:25.878Z,-1.00
2023-02-08T06:19:55.007Z,-1.20
2023-02-08T06:22:22.983Z,-1.30
2023-02-08T06:24:52.359Z,-1.30
2023-02-08T06:27:20.817Z,-1.30
2023-02-08T06:29:48.793Z,-1.40
2023-02-08T06:32:16.775Z,-1.30
2023-02-08T06:34:44.800Z,-1.30
2023-02-08T06:37:12.859Z,-1.20
2023-02-08T06:39:41.495Z,-1.40
2023-02-08T06:42:11.153Z,-1.30
2023-02-08T06:44:45.919Z,-1.00
2023-02-08T06:47:19.603Z,-1.10
2023-02-08T06:49:47.571Z,-1.30
2023-02-08T06:52:15.560Z,-1.10
2023-02-08T06:54:43.782Z,-0.80
2023-02-08T06:57:13.380Z,-0.60
2023-02-08T06:59:41.479Z,-0.40
2023-02-08T07:02:13.817Z,-0.30
2023-02-08T07:04:41.873Z,-0.40
2023-02-08T07:07:10.039Z,-0.60
2023-02-08T07:09:38.278Z,-0.70
2023-02-08T07:12:06.930Z,-0.50
2023-02-08T07:14:38.431Z,-0.30
2023-02-08T07:17:06.727Z,-0.20
2023-02-08T07:19:34.882Z,-0.20
2023-02-08T07:22:08.138Z,-0.10
2023-02-08T07:24:36.858Z,-0.20
2023-02-08T07:27:05.801Z,-0.20
2023-02-08T07:29:34.829Z,-0.20
2023-02-08T07:32:05.352Z,-0.20
2023-02-08T07:34:35.416Z,-0.80
2023-02-08T07:37:03.523Z,-0.90
2023-02-08T07:39:31.689Z,-0.80
2023-02-08T07:41:59.858Z,-0.90
2023-02-08T07:44:27.886Z,-0.80
2023-02-08T07:46:56.132Z,-0.80
2023-02-08T07:49:25.618Z,-0.60
2023-02-08T07:51:53.561Z,-0.70
2023-02-08T07:54:21.622Z,-0.90
2023-02-08T07:56:49.772Z,-0.90
2023-02-08T07:59:17.807Z,-0.70
2023-02-08T08:01:45.981Z,-0.90
2023-02-08T08:04:14.072Z,-1.00
2023-02-08T08:06:43.435Z,-1.20
2023-02-08T08:09:11.640Z,-1.10
2023-02-08T08:11:39.610Z,-1.20
2023-02-08T08:14:07.634Z,-1.20
2023-02-08T08:16:35.811Z,-1.20
2023-02-08T08:19:03.866Z,-1.20
2023-02-08T08:21:31.839Z,-1.10
2023-02-08T08:24:01.229Z,-0.80
2023-02-08T08:26:29.761Z,-0.60
2023-02-08T08:28:57.975Z,-0.40
2023-02-08T08:31:26.165Z,-0.20
2023-02-08T08:33:54.314Z,-0.20
2023-02-08T08:36:22.352Z,-0.10
2023-02-08T08:38:50.390Z,-0.20
2023-02-08T08:41:22.244Z,-0.40
2023-02-08T08:43:50.417Z,-0.50
2023-02-08T08:46:18.378Z,-0.50
2023-02-08T08:48:47.267Z,-0.50
2023-02-08T08:51:15.837Z,-0.50
2023-02-08T08:53:43.926Z,-0.40
2023-02-08T08:56:12.044Z,-0.50
2023-02-08T08:58:41.421Z,-0.50
2023-02-08T09:01:09.442Z,-0.40
2023-02-08T09:03:37.630Z,-0.10
2023-02-08T09:06:05.956Z,0.10
2023-02-08T09:08:33.947Z,0.20
2023-02-08T09:11:06.645Z,0.30
2023-02-08T09:13:34.944Z,0.40
2023-02-08T09:16:10.399Z,0.50
2023-02-08T09:18:38.662Z,0.60
2023-02-08T09:21:07.833Z,0.60
2023-02-08T09:23:35.851Z,0.60
2023-02-08T09:26:04.680Z,0.60
2023-02-08T09:28:33.175Z,0.50
2023-02-08T09:31:07.968Z,0.40
2023-02-08T09:33:37.627Z,0.40
2023-02-08T09:36:06.704Z,0.50
2023-02-08T09:38:35.666Z,0.60
2023-02-08T09:41:15.289Z,0.60
2023-02-08T09:43:51.314Z,0.70
2023-02-08T09:46:22.508Z,0.80
2023-02-08T09:48:53.982Z,1.00
2023-02-08T09:51:30.848Z,0.90
2023-02-08T09:54:03.033Z,1.00
2023-02-08T09:56:36.284Z,1.00
2023-02-08T09:59:06.275Z,0.90
2023-02-08T10:01:36.953Z,1.00
2023-02-08T10:04:13.406Z,1.10
2023-02-08T10:06:41.682Z,1.10
2023-02-08T10:09:15.483Z,1.30
2023-02-08T10:11:58.183Z,1.40
2023-02-08T10:14:45.177Z,1.40
2023-02-08T10:17:44.260Z,1.60
2023-02-08T10:20:26.257Z,1.60
2023-02-08T10:23:05.186Z,1.60
2023-02-08T10:25:53.006Z,1.60
2023-02-08T10:28:58.841Z,1.60
2023-02-08T10:31:39.857Z,1.60
2023-02-08T10:34:21.192Z,1.60
2023-02-08T10:36:50.601Z,1.60
2023-02-08T10:39:21.553Z,1.60
2023-02-08T10:41:49.560Z,1.60
2023-02-08T10:44:28.138Z,1.70
2023-02-08T10:47:04.463Z,1.70
2023-02-08T10:49:40.017Z,1.80
2023-02-08T10:52:09.405Z,1.80
2023-02-08T10:54:37.550Z,1.90
2023-02-08T10:57:12.803Z,2.10
2023-02-08T10:59:50.692Z,2.10
2023-02-08T11:02:26.374Z,2.20
2023-02-08T11:05:03.124Z,2.30
2023-02-08T11:07:36.220Z,2.40
2023-02-08T11:10:24.757Z,2.40
2023-02-08T11:12:58.477Z,2.50
2023-02-08T11:15:29.011Z,2.60
2023-02-08T11:18:01.184Z,2.60
2023-02-08T11:20:36.648Z,2.70
2023-02-08T11:23:08.117Z,2.70
2023-02-08T11:25:39.172Z,2.80
2023-02-08T11:28:23.908Z,2.80
2023-02-08T11:31:00.361Z,2.80
2023-02-08T11:33:29.741Z,2.80
2023-02-08T11:36:15.674Z,2.80
2023-02-08T11:38:45.002Z,2.90
2023-02-08T11:41:19.079Z,2.90
2023-02-08T11:43:57.952Z,3.00
2023-02-08T11:46:28.574Z,3.00
2023-02-08T11:48:57.519Z,3.10
2023-02-08T11:51:29.654Z,3.20
2023-02-08T11:54:00.504Z,3.20
2023-02-08T11:56:31.148Z,3.30
2023-02-08T11:59:03.362Z,3.30
2023-02-08T12:01:33.585Z,3.40
2023-02-08T12:04:05.435Z,3.40
2023-02-08T12:06:57.062Z,3.40
2023-02-08T12:09:42.079Z,3.50
2023-02-08T12:12:19.502Z,3.50
2023-02-08T12:14:55.237Z,3.50
2023-02-08T12:17:47.601Z,3.60
2023-02-08T12:20:36.186Z,3.60
2023-02-08T12:23:36.826Z,3.70
2023-02-08T12:26:15.500Z,3.80
2023-02-08T12:28:54.696Z,3.80
2023-02-08T12:31:37.082Z,3.90
2023-02-08T12:34:16.425Z,4.00
2023-02-08T12:37:14.012Z,4.00
2023-02-08T12:40:06.466Z,4.10
2023-02-08T12:42:45.801Z,4.10
2023-02-08T12:45:35.775Z,4.20
2023-02-08T12:48:17.978Z,4.30
2023-02-08T12:50:53.299Z,4.30
2023-02-08T12:53:25.817Z,4.30
2023-02-08T12:55:57.540Z,4.30
2023-02-08T12:58:31.219Z,4.40
2023-02-08T13:01:06.600Z,4.40
2023-02-08T13:03:45.128Z,4.40
2023-02-08T13:06:19.423Z,4.50
2023-02-08T13:08:51.617Z,4.50
2023-02-08T13:11:29.242Z,4.50
2023-02-08T13:14:04.735Z,4.50
2023-02-08T13:16:36.931Z,4.50
2023-02-08T13:19:25.820Z,4.50
2023-02-08T13:21:55.546Z,4.60
2023-02-08T13:24:31.432Z,4.60
2023-02-08T13:26:59.467Z,4.70
2023-02-08T13:29:30.540Z,4.70
2023-02-08T13:32:03.315Z,4.70
2023-02-08T13:34:37.155Z,4.80
2023-02-08T13:37:24.113Z,4.80
2023-02-08T13:40:01.415Z,4.80
2023-02-08T13:42:31.861Z,4.80
2023-02-08T13:45:03.034Z,4.90
2023-02-08T13:47:33.925Z,4.90
2023-02-08T13:50:07.385Z,4.90
2023-02-08T13:52:52.874Z,4.90
2023-02-08T13:55:46.014Z,4.90
2023-02-08T13:58:55.381Z,4.90
2023-02-08T14:01:27.696Z,4.90
2023-02-08T14:04:18.295Z,5.00
2023-02-08T14:06:51.052Z,5.00
2023-02-08T14:09:26.359Z,5.00
2023-02-08T14:12:01.196Z,5.00
2023-02-08T14:14:31.956Z,5.00
2023-02-08T14:17:29.778Z,5.00
2023-02-08T14:20:00.750Z,5.10
2023-02-08T14:22:36.607Z,5.00
2023-02-08T14:25:07.844Z,5.00
2023-02-08T14:27:40.658Z,4.90
2023-02-08T14:30:21.072Z,4.90
2023-02-08T14:32:53.205Z,4.80
2023-02-08T14:35:24.826Z,4.70
2023-02-08T14:38:31.275Z,4.70
2023-02-08T14:41:00.428Z,4.70
2023-02-08T14:43:34.877Z,4.70
2023-02-08T14:46:40.309Z,4.70
2023-02-08T14:49:12.754Z,4.70
2023-02-08T14:51:44.073Z,4.70
2023-02-08T14:54:24.332Z,4.70
2023-02-08T14:56:59.384Z,4.70
2023-02-08T14:59:35.255Z,4.60
2023-02-08T15:02:12.529Z,4.60
2023-02-08T15:04:47.234Z,4.60
2023-02-08T15:07:23.589Z,4.60
2023-02-08T15:09:51.764Z,4.60
2023-02-08T15:12:25.974Z,4.60
2023-02-08T15:14:55.295Z,4.50
2023-02-08T15:17:32.071Z,4.50
2023-02-08T15:20:03.177Z,4.40
2023-02-08T15:22:34.787Z,4.40
2023-02-08T15:25:14.347Z,4.30
2023-02-08T15:27:48.666Z,4.20
2023-02-08T15:30:28.546Z,4.30
2023-02-08T15:32:57.014Z,4.30
2023-02-08T15:35:28.000Z,4.30
2023-02-08T15:37:57.061Z,4.30
2023-02-08T15:40:30.540Z,4.30
2023-02-08T15:43:05.046Z,4.20
2023-02-08T15:45:33.220Z,4.20
2023-02-08T15:48:02.737Z,4.20
2023-02-08T15:50:33.415Z,4.10
2023-02-08T15:53:04.661Z,4.10
2023-02-08T15:55:39.510Z,4.10
2023-02-08T15:58:16.478Z,4.00
2023-02-08T16:00:47.392Z,4.00
2023-02-08T16:03:23.630Z,4.00
2023-02-08T16:05:55.900Z,3.90
2023-02-08T16:08:28.061Z,3.90
2023-02-08T16:10:59.851Z,3.90
2023-02-08T16:13:31.037Z,3.80
2023-02-08T16:16:15.900Z,3.80
2023-02-08T16:18:46.149Z,3.80
2023-02-08T16:21:41.485Z,3.70
2023-02-08T16:24:22.013Z,3.60
2023-02-08T16:27:03.720Z,3.70
2023-02-08T16:29:33.675Z,3.70
2023-02-08T16:32:07.120Z,3.60
2023-02-08T16:34:39.516Z,3.60
2023-02-08T16:37:24.241Z,3.50
2023-02-08T16:39:54.426Z,3.50
2023-02-08T16:42:31.516Z,3.50
2023-02-08T16:45:18.271Z,3.50
2023-02-08T16:47:50.197Z,3.50
2023-02-08T16:50:20.634Z,3.50
2023-02-08T16:52:55.431Z,3.50
2023-02-08T16:55:25.797Z,3.50
2023-02-08T16:57:55.973Z,3.40
2023-02-08T17:00:26.531Z,3.30
2023-02-08T17:02:55.199Z,3.30
2023-02-08T17:05:28.685Z,3.30
2023-02-08T17:07:58.850Z,3.30
2023-02-08T17:10:29.273Z,3.20
2023-02-08T17:13:13.480Z,3.20
2023-02-08T17:15:46.257Z,3.20
2023-02-08T17:18:14.617Z,3.10
2023-02-08T17:20:43.029Z,3.10
2023-02-08T17:23:13.064Z,3.10
2023-02-08T17:25:41.426Z,3.00
2023-02-08T17:28:15.005Z,3.00
2023-02-08T17:30:45.055Z,3.00
2023-02-08T17:33:18.114Z,3.00
2023-02-08T17:35:47.988Z,2.90
2023-02-08T17:38:17.878Z,2.90
2023-02-08T17:40:46.381Z,2.90
2023-02-08T17:43:14.960Z,2.80
2023-02-08T17:45:45.102Z,2.80
2023-02-08T17:48:14.357Z,2.80
2023-02-08T17:50:43.980Z,2.80
2023-02-08T17:53:12.296Z,2.80
2023-02-08T17:55:44.213Z,2.80
2023-02-08T17:58:12.878Z,2.80
2023-02-08T18:00:41.062Z,2.80
2023-02-08T18:03:09.175Z,2.80
2023-02-08T18:05:37.966Z,2.60
2023-02-08T18:08:06.365Z,2.70
2023-02-08T18:10:34.385Z,2.70
2023-02-08T18:13:03.784Z,2.80
2023-02-08T18:15:31.921Z,2.70
2023-02-08T18:17:59.916Z,2.70
2023-02-08T18:20:28.420Z,2.60
2023-02-08T18:22:56.422Z,2.60
2023-02-08T18:25:24.480Z,2.50
2023-02-08T18:27:52.504Z,2.60
2023-02-08T18:30:22.732Z,2.50
2023-02-08T18:32:50.710Z,2.50
2023-02-08T18:35:20.849Z,2.50
2023-02-08T18:37:49.591Z,2.40
2023-02-08T18:40:18.430Z,2.40
2023-02-08T18:42:54.044Z,2.40
2023-02-08T18:45:24.842Z,2.40
2023-02-08T18:47:54.594Z,2.30
2023-02-08T18:50:24.111Z,2.30
2023-02-08T18:52:52.202Z,2.30
2023-02-08T18:55:20.177Z,2.30
2023-02-08T18:57:48.649Z,2.30
2023-02-08T19:00:17.298Z,2.20
2023-02-08T19:02:46.863Z,2.30
2023-02-08T19:05:14.912Z,2.30
2023-02-08T19:07:42.868Z,2.30
2023-02-08T19:10:10.984Z,2.20
2023-02-08T19:12:38.991Z,2.20
2023-02-08T19:15:07.704Z,2.20
2023-02-08T19:17:35.676Z,2.10
2023-02-08T19:20:05.597Z,2.10
2023-02-08T19:22:33.595Z,2.20
2023-02-08T19:25:01.722Z,2.10
2023-02-08T19:27:29.799Z,2.10
2023-02-08T19:29:57.840Z,2.10
2023-02-08T19:32:25.857Z,2.00
2023-02-08T19:34:53.917Z,2.00
2023-02-08T19:37:23.329Z,2.00
2023-02-08T19:39:51.281Z,1.90
2023-02-08T19:42:19.315Z,1.90
2023-02-08T19:44:47.283Z,1.90
2023-02-08T19:47:15.367Z,1.90
2023-02-08T19:49:43.366Z,1.90
2023-02-08T19:52:11.468Z,1.90
2023-02-08T19:54:40.789Z,1.90
2023-02-08T19:57:11.799Z,1.80
2023-02-08T19:59:39.810Z,1.80
2023-02-08T20:02:11.549Z,1.80
2023-02-08T20:04:40.000Z,1.80
2023-02-08T20:07:08.764Z,1.80
2023-02-08T20:09:36.814Z,1.80
2023-02-08T20:12:08.767Z,1.80
2023-02-08T20:14:36.758Z,1.80
2023-02-08T20:17:05.512Z,1.80
2023-02-08T20:19:36.171Z,1.70
2023-02-08T20:22:04.999Z,1.70
2023-02-08T20:24:32.942Z,1.70
2023-02-08T20:27:01.035Z,1.70
2023-02-08T20:29:30.763Z,1.60
2023-02-08T20:32:00.594Z,1.60
2023-02-08T20:34:28.684Z,1.60
2023-02-08T20:37:12.139Z,1.60
2023-02-08T20:39:40.123Z,1.60
2023-02-08T20:42:11.358Z,1.60
2023-02-08T20:44:40.724Z,1.50
2023-02-08T20:47:08.979Z,1.50
2023-02-08T20:49:38.866Z,1.50
2023-02-08T20:52:07.003Z,1.50
2023-02-08T20:54:34.982Z,1.50
2023-02-08T20:57:03.042Z,1.50
2023-02-08T20:59:31.296Z,1.50
2023-02-08T21:02:00.732Z,1.50
2023-02-08T21:04:28.782Z,1.50
2023-02-08T21:06:56.863Z,1.50
2023-02-08T21:09:24.917Z,1.50
2023-02-08T21:11:53.336Z,1.50
2023-02-08T21:14:23.576Z,1.50
2023-02-08T21:16:53.923Z,1.40
2023-02-08T21:19:24.136Z,1.40
2023-02-08T21:21:52.257Z,1.50
2023-02-08T21:24:20.880Z,1.40
2023-02-08T21:26:48.915Z,1.40
2023-02-08T21:29:16.983Z,1.30
2023-02-08T21:31:45.153Z,1.40
2023-02-08T21:34:13.878Z,1.40
2023-02-08T21:36:43.227Z,1.30
2023-02-08T21:39:11.584Z,1.30
2023-02-08T21:41:39.610Z,1.30
2023-02-08T21:44:08.331Z,1.40
2023-02-08T21:46:36.964Z,1.40
2023-02-08T21:49:22.637Z,1.50
2023-02-08T21:52:09.794Z,1.50
2023-02-08T21:54:44.558Z,1.60
2023-02-08T21:57:16.046Z,1.60
2023-02-08T21:59:44.459Z,1.60
2023-02-08T22:02:15.788Z,1.60
2023-02-08T22:05:01.609Z,1.60
2023-02-08T22:07:31.155Z,1.40
2023-02-08T22:09:59.238Z,1.40
2023-02-08T22:12:27.240Z,1.50
2023-02-08T22:14:55.264Z,1.50
2023-02-08T22:17:24.305Z,1.50
2023-02-08T22:19:52.284Z,1.50
2023-02-08T22:22:21.371Z,1.40
2023-02-08T22:24:50.711Z,1.40
2023-02-08T22:27:18.816Z,1.40
2023-02-08T22:29:46.832Z,1.40
2023-02-08T22:32:17.050Z,1.30
2023-02-08T22:34:47.694Z,1.30
2023-02-08T22:37:16.616Z,1.20
2023-02-08T22:39:44.664Z,1.30
2023-02-08T22:42:14.819Z,1.20
2023-02-08T22:44:44.482Z,1.20
2023-02-08T22:47:13.630Z,1.20
2023-02-08T22:49:42.134Z,1.20
2023-02-08T22:52:10.650Z,1.10
2023-02-08T22:54:39.280Z,1.10
2023-02-08T22:57:09.151Z,1.10
2023-02-08T22:59:39.744Z,1.10
2023-02-08T23:02:08.198Z,1.00
2023-02-08T23:04:37.163Z,1.10
2023-02-08T23:07:05.752Z,1.00
2023-02-08T23:09:33.688Z,1.00
2023-02-08T23:12:01.705Z,1.00
2023-02-08T23:14:29.734Z,1.00
2023-02-08T23:16:59.139Z,1.00
2023-02-08T23:19:27.184Z,1.00
2023-02-08T23:21:58.451Z,1.00
2023-02-08T23:24:26.547Z,0.90
2023-02-08T23:26:54.608Z,0.90
2023-02-08T23:29:22.641Z,0.90
2023-02-08T23:31:50.825Z,0.90
2023-02-08T23:34:20.540Z,0.90
2023-02-08T23:36:48.788Z,0.90
2023-02-08T23:39:16.991Z,0.80
2023-02-08T23:41:44.956Z,0.80
2023-02-08T23:44:13.411Z,0.80
2023-02-08T23:46:41.461Z,0.80
2023-02-08T23:49:09.476Z,0.80
2023-02-08T23:51:38.833Z,0.80
2023-02-08T23:54:07.121Z,0.70
2023-02-08T23:56:35.266Z,0.70
2023-02-08T23:59:05.734Z,0.70
